Time;durP1;ratioP1;P1;durP2;ratioP2;P2;SDS_P1;SDS_P2;PMS_P1;PMS_P2;Temp;Humidity;BMP_temperature;BMP_pressure;BME280_temperature;BME280_humidity;BME280_pressure;Samples;Min_cycle;Max_cycle;Signal;HPM_P1;HPM_P2
2021/01/11 09:07:06;;;;;;;47.63;26.02;;;;;;;-4.81;89.91;96514.16;1053062;28;20722;-85
2021/01/11 09:07:36;;;;;;;50.30;27.17;;;;;;;-4.82;89.05;96507.34;1046892;28;20045;-85
2021/01/11 09:08:38;;;;;;;47.13;26.48;;;;;;;-4.84;89.42;96517.03;1041114;28;20049;-86
2021/01/11 09:09:13;;;;;;;45.53;25.70;;;;;;;-4.85;89.80;96506.84;1038792;28;20046;-86
2021/01/11 09:09:45;;;;;;;44.17;24.30;;;;;;;-4.84;89.57;96514.44;1037321;28;20468;-86
2021/01/11 09:10:24;;;;;;;48.67;26.95;;;;;;;-4.74;89.95;96514.38;1040326;28;20085;-87
2021/01/11 09:10:55;;;;;;;47.03;26.00;;;;;;;-4.71;89.25;96509.75;1038471;28;20430;-87
2021/01/11 09:11:26;;;;;;;46.33;25.38;;;;;;;-4.76;88.87;96514.53;1036069;28;20094;-87
2021/01/11 09:12:01;;;;;;;51.45;26.25;;;;;;;-4.74;87.74;96512.59;1040413;28;20410;-87
2021/01/11 09:12:34;;;;;;;43.78;25.75;;;;;;;-4.69;88.18;96509.59;1040628;28;20017;-88
2021/01/11 09:13:18;;;;;;;46.17;25.70;;;;;;;-4.76;87.70;96509.34;1038652;28;20486;-88
2021/01/11 09:14:08;;;;;;;52.53;26.50;;;;;;;-4.97;88.11;96500.19;1042499;28;20080;-87
2021/01/11 09:14:51;;;;;;;53.47;27.92;;;;;;;-5.04;87.99;96518.06;1040348;28;20124;-88
2021/01/11 09:15:29;;;;;;;56.95;28.92;;;;;;;-5.08;88.85;96508.97;1039332;28;20612;-88
2021/01/11 09:16:14;;;;;;;52.08;28.20;;;;;;;-5.18;89.44;96521.13;1044347;28;20017;-88
2021/01/11 09:16:54;;;;;;;51.80;26.73;;;;;;;-5.12;89.39;96511.00;1044579;28;20429;-88
2021/01/11 09:17:28;;;;;;;53.42;29.23;;;;;;;-5.20;89.56;96510.94;1049028;28;20466;-88
2021/01/11 09:18:03;;;;;;;49.53;26.75;;;;;;;-5.28;89.50;96521.13;1044257;28;20025;-86
2021/01/11 09:19:03;;;;;;;52.72;28.42;;;;;;;-5.14;90.61;96514.69;1044987;28;20033;-86
2021/01/11 09:19:34;;;;;;;50.30;25.80;;;;;;;-5.18;90.53;96521.94;1044350;28;20256;-86
2021/01/11 09:20:07;;;;;;;50.97;26.65;;;;;;;-5.10;90.00;96514.25;1044432;28;20606;-86
2021/01/11 09:20:38;;;;;;;50.67;27.25;;;;;;;-5.08;89.58;96516.72;1040290;28;20026;-86
2021/01/11 09:21:08;;;;;;;51.78;27.92;;;;;;;-5.08;90.49;96521.91;1040079;28;20080;-86
2021/01/11 09:21:41;;;;;;;53.38;27.85;;;;;;;-5.07;90.26;96518.34;1040359;28;20068;-86
2021/01/11 09:22:17;;;;;;;53.60;27.80;;;;;;;-5.11;89.54;96519.56;1037329;28;20109;-86
2021/01/11 09:22:52;;;;;;;51.40;27.38;;;;;;;-5.15;89.54;96516.47;1044466;28;20028;-85
2021/01/11 09:23:23;;;;;;;48.63;26.15;;;;;;;-5.18;89.79;96514.19;1040197;28;20060;-85
2021/01/11 09:23:54;;;;;;;53.15;26.73;;;;;;;-5.11;89.76;96517.81;1042564;28;20276;-86
2021/01/11 09:24:26;;;;;;;48.33;26.48;;;;;;;-5.08;89.99;96516.72;1040429;28;20495;-87
2021/01/11 09:24:57;;;;;;;49.70;27.05;;;;;;;-5.13;89.68;96516.31;1041490;28;20025;-85
2021/01/11 09:25:28;;;;;;;48.60;26.83;;;;;;;-5.03;90.38;96520.50;1040333;28;20499;-85
2021/01/11 09:26:00;;;;;;;47.25;26.83;;;;;;;-5.03;89.91;96517.09;1040928;28;20021;-84
2021/01/11 09:26:34;;;;;;;51.78;27.27;;;;;;;-5.06;90.18;96519.97;1044694;28;20035;-84
2021/01/11 09:27:05;;;;;;;50.50;27.10;;;;;;;-5.05;89.84;96527.59;1044339;28;20040;-84
2021/01/11 09:27:36;;;;;;;47.55;25.80;;;;;;;-5.01;90.23;96521.16;1045361;28;20612;-86
2021/01/11 09:28:08;;;;;;;45.97;25.98;;;;;;;-5.00;89.72;96532.31;1044309;28;20021;-84
2021/01/11 09:28:39;;;;;;;49.25;27.30;;;;;;;-5.11;90.15;96524.75;1036503;28;20098;-86
2021/01/11 09:29:09;;;;;;;52.47;27.08;;;;;;;-5.03;90.64;96524.88;1040362;28;20112;-85
2021/01/11 09:29:40;;;;;;;48.25;25.73;;;;;;;-4.92;91.09;96535.03;1036373;28;20026;-88
2021/01/11 09:30:10;;;;;;;48.38;26.55;;;;;;;-4.92;90.36;96531.63;1040721;28;20022;-88
2021/01/11 09:30:41;;;;;;;53.97;27.80;;;;;;;-4.95;89.80;96531.91;1048489;28;20453;-88
2021/01/11 09:31:12;;;;;;;51.65;26.85;;;;;;;-4.96;90.52;96528.53;1048790;28;20104;-87
2021/01/11 09:31:43;;;;;;;48.75;26.00;;;;;;;-4.80;91.38;96533.06;1044340;28;20091;-87
2021/01/11 09:32:14;;;;;;;50.50;27.30;;;;;;;-4.66;90.92;96537.75;1044497;28;20044;-86
2021/01/11 09:32:45;;;;;;;45.72;25.55;;;;;;;-4.73;89.87;96534.94;1044458;28;20087;-86
2021/01/11 09:33:20;;;;;;;46.83;26.08;;;;;;;-4.70;89.54;96536.44;1041187;28;20093;-86
2021/01/11 09:33:52;;;;;;;45.67;24.77;;;;;;;-4.90;89.11;96534.88;1044671;28;20029;-87
2021/01/11 09:34:22;;;;;;;47.35;24.58;;;;;;;-5.07;89.41;96534.69;1041369;28;20037;-87
2021/01/11 09:34:53;;;;;;;46.25;25.65;;;;;;;-4.95;89.96;96535.31;1045530;28;20032;-87
2021/01/11 09:35:24;;;;;;;42.25;24.38;;;;;;;-4.98;89.93;96534.75;1049412;28;20028;-86
2021/01/11 09:35:57;;;;;;;49.30;25.65;;;;;;;-5.00;90.04;96535.72;1050372;28;20024;-87
2021/01/11 09:36:34;;;;;;;43.83;23.90;;;;;;;-4.89;90.45;96536.50;1046832;28;20017;-86
2021/01/11 09:37:05;;;;;;;48.08;26.17;;;;;;;-4.78;90.36;96538.91;1046600;28;20032;-86
2021/01/11 09:37:37;;;;;;;44.15;25.05;;;;;;;-4.79;88.93;96537.28;1046388;28;20140;-85
2021/01/11 09:38:07;;;;;;;45.45;25.27;;;;;;;-4.90;89.11;96534.88;1044850;28;20483;-86
2021/01/11 09:38:38;;;;;;;50.03;25.60;;;;;;;-5.00;88.71;96533.13;1050784;28;20017;-85
2021/01/11 09:39:09;;;;;;;43.90;24.45;;;;;;;-4.92;89.02;96535.03;1042299;28;20025;-85
2021/01/11 09:39:39;;;;;;;46.30;26.02;;;;;;;-4.94;88.64;96534.34;1042369;28;20486;-85
2021/01/11 09:40:10;;;;;;;45.25;24.52;;;;;;;-4.92;89.89;96540.19;1045998;28;20021;-84
2021/01/11 09:40:41;;;;;;;44.80;24.40;;;;;;;-4.99;89.48;96533.94;1045610;28;20052;-85
2021/01/11 09:41:12;;;;;;;49.75;25.45;;;;;;;-4.86;90.82;96529.28;1049835;28;20028;-85
2021/01/11 09:41:53;;;;;;;51.13;27.52;;;;;;;-4.82;89.65;96525.47;1050128;28;20036;-86
2021/01/11 09:42:24;;;;;;;46.88;26.33;;;;;;;-4.78;89.75;96533.72;1049450;28;20032;-85
2021/01/11 09:42:56;;;;;;;50.38;25.85;;;;;;;-4.95;89.51;96532.72;1050324;28;20025;-85
2021/01/11 09:43:30;;;;;;;48.55;24.88;;;;;;;-4.90;89.39;96529.72;1050195;28;20016;-85
2021/01/11 09:44:00;;;;;;;51.20;26.23;;;;;;;-4.96;89.36;96538.88;1049650;28;20046;-84
2021/01/11 09:44:31;;;;;;;51.83;25.70;;;;;;;-4.82;90.52;96538.38;1041137;28;20077;-84
2021/01/11 09:45:06;;;;;;;50.15;27.38;;;;;;;-4.81;89.56;96534.03;1034563;28;20080;-85
2021/01/11 09:45:37;;;;;;;46.38;25.95;;;;;;;-4.96;89.02;96531.09;1035586;28;20128;-86
2021/01/11 09:46:09;;;;;;;50.90;27.33;;;;;;;-4.96;89.26;96538.88;1040914;28;20208;-85
2021/01/11 09:46:51;;;;;;;47.17;26.20;;;;;;;-4.94;89.81;96536.94;1034795;28;20023;-86
2021/01/11 09:47:22;;;;;;;48.22;26.35;;;;;;;-5.07;90.22;96531.28;1043859;28;20075;-86
2021/01/11 09:47:53;;;;;;;51.25;26.95;;;;;;;-5.19;90.14;96532.41;1037346;28;20388;-85
2021/01/11 09:48:23;;;;;;;50.53;26.25;;;;;;;-5.11;90.02;96529.91;1042291;28;20272;-85
2021/01/11 09:48:56;;;;;;;47.78;25.52;;;;;;;-4.89;91.94;96534.72;1047422;28;20058;-86
2021/01/11 09:49:27;;;;;;;55.42;27.88;;;;;;;-5.20;90.09;96539.34;1039122;28;20017;-87
2021/01/11 09:49:57;;;;;;;50.50;25.73;;;;;;;-5.28;90.44;96536.63;1042046;28;20049;-86
2021/01/11 09:50:28;;;;;;;47.60;26.02;;;;;;;-5.10;90.52;96528.97;1038258;28;20070;-87
2021/01/11 09:50:58;;;;;;;50.97;26.80;;;;;;;-5.17;90.31;96533.06;1039980;28;20014;-86
2021/01/11 09:51:29;;;;;;;51.03;26.55;;;;;;;-5.11;90.82;96532.50;1046243;28;20017;-86
2021/01/11 09:52:01;;;;;;;52.20;27.65;;;;;;;-5.13;89.92;96531.84;1044473;28;20017;-86
2021/01/11 09:52:32;;;;;;;49.80;26.05;;;;;;;-5.13;90.81;96530.06;1048449;28;20037;-87
2021/01/11 09:53:05;;;;;;;48.67;25.73;;;;;;;-5.08;91.13;96521.91;1045520;28;20556;-86
2021/01/11 09:53:35;;;;;;;47.85;25.83;;;;;;;-5.12;91.12;96525.69;1048428;28;20012;-87
2021/01/11 09:54:06;;;;;;;50.22;27.25;;;;;;;-5.06;90.62;96527.75;1042925;28;20447;-87
2021/01/11 09:54:36;;;;;;;48.15;25.77;;;;;;;-5.14;90.68;96523.25;1043385;28;20017;-87
2021/01/11 09:55:07;;;;;;;47.60;26.08;;;;;;;-5.26;90.20;96528.75;1043664;28;20024;-86
2021/01/11 09:55:38;;;;;;;53.53;28.27;;;;;;;-5.24;90.66;96524.25;1044435;28;20017;-86
2021/01/11 09:56:08;;;;;;;49.30;25.90;;;;;;;-5.13;91.37;96521.50;1040283;28;20010;-86
2021/01/11 09:56:39;;;;;;;48.63;27.20;;;;;;;-5.22;90.24;96522.31;1039568;28;20026;-86
2021/01/11 09:57:12;;;;;;;51.13;27.13;;;;;;;-5.28;90.75;96526.31;1039699;28;20017;-86
2021/01/11 09:57:43;;;;;;;46.67;26.42;;;;;;;-5.15;90.16;96524.22;1040446;28;20451;-86
2021/01/11 09:58:15;;;;;;;49.25;26.13;;;;;;;-5.08;91.25;96520.13;1048025;28;20013;-87
2021/01/11 09:58:45;;;;;;;50.13;26.67;;;;;;;-5.10;90.80;96518.63;1047473;28;20474;-86
2021/01/11 09:59:17;;;;;;;47.13;25.20;;;;;;;-5.15;90.16;96513.88;1047036;28;20025;-86
2021/01/11 09:59:48;;;;;;;49.42;25.90;;;;;;;-5.06;91.00;96514.81;1048093;28;20100;-86
2021/01/11 10:00:19;;;;;;;47.22;25.50;;;;;;;-5.03;90.26;96512.75;1039833;28;20018;-87
2021/01/11 10:00:49;;;;;;;47.53;26.25;;;;;;;-5.13;90.37;96513.75;1039597;28;20013;-87
2021/01/11 10:01:20;;;;;;;48.50;26.80;;;;;;;-5.11;91.09;96512.63;1032491;28;20022;-86
2021/01/11 10:01:51;;;;;;;51.38;27.60;;;;;;;-5.11;90.17;96515.22;1035758;28;20069;-86
2021/01/11 10:02:21;;;;;;;52.22;27.55;;;;;;;-5.16;89.99;96503.69;1038249;28;20026;-86
2021/01/11 10:02:52;;;;;;;51.55;26.35;;;;;;;-5.25;89.77;96512.28;1038579;28;20018;-85
2021/01/11 10:03:22;;;;;;;52.53;27.20;;;;;;;-5.20;89.46;96512.69;1045219;28;20025;-86
2021/01/11 10:03:53;;;;;;;42.22;24.42;;;;;;;-5.18;89.49;96510.78;1042204;28;20024;-86
2021/01/11 10:04:23;;;;;;;47.65;26.85;;;;;;;-5.12;89.42;96505.84;1047664;28;20032;-86
2021/01/11 10:04:53;;;;;;;49.65;27.23;;;;;;;-5.13;89.30;96508.56;1047641;28;20023;-86
2021/01/11 10:05:24;;;;;;;48.08;25.83;;;;;;;-5.09;89.97;96512.50;1041704;28;20021;-86
2021/01/11 10:05:57;;;;;;;50.65;26.85;;;;;;;-5.30;89.41;96510.94;1042515;28;20009;-86
2021/01/11 10:06:42;;;;;;;49.63;26.92;;;;;;;-5.14;91.31;96517.28;1043570;28;20040;-86
2021/01/11 10:07:13;;;;;;;46.30;25.88;;;;;;;-5.14;90.22;96512.13;1033794;28;20078;-85
2021/01/11 10:07:46;;;;;;;49.90;25.75;;;;;;;-5.09;89.52;96515.91;1034044;28;20472;-86
2021/01/11 10:08:17;;;;;;;50.95;27.65;;;;;;;-5.19;89.87;96514.31;1035415;28;20072;-87
2021/01/11 10:08:47;;;;;;;51.45;26.65;;;;;;;-5.08;91.18;96511.56;1033452;28;20093;-85
2021/01/11 10:09:30;;;;;;;50.17;26.60;;;;;;;-5.18;90.10;96506.41;1043128;28;20079;-86
2021/01/11 10:10:00;;;;;;;51.88;26.20;;;;;;;-5.14;90.39;96506.94;1038729;28;20483;-84
2021/01/11 10:10:31;;;;;;;53.65;27.20;;;;;;;-5.06;90.49;96507.88;1043387;28;20032;-85
2021/01/11 10:11:04;;;;;;;53.15;28.67;;;;;;;-5.06;90.11;96509.66;1042603;28;20044;-88
2021/01/11 10:11:34;;;;;;;51.00;26.58;;;;;;;-5.06;90.21;96509.66;1037995;28;20074;-87
2021/01/11 10:12:05;;;;;;;49.50;27.65;;;;;;;-5.10;89.65;96509.09;1036102;28;20030;-87
2021/01/11 10:12:35;;;;;;;45.30;25.15;;;;;;;-5.09;89.22;96504.72;1035881;28;20034;-88
2021/01/11 10:13:07;;;;;;;56.00;28.13;;;;;;;-5.05;89.32;96504.31;1032489;28;20023;-88
2021/01/11 10:13:37;;;;;;;52.10;26.85;;;;;;;-5.08;89.20;96501.22;1036300;28;20014;-87
2021/01/11 10:14:08;;;;;;;50.95;26.50;;;;;;;-4.96;89.70;96499.28;1043840;28;20021;-87
2021/01/11 10:14:38;;;;;;;49.95;27.13;;;;;;;-5.02;90.36;96496.28;1046678;28;20375;-87
2021/01/11 10:15:09;;;;;;;52.47;27.13;;;;;;;-5.00;89.98;96496.13;1048275;28;20017;-88
2021/01/11 10:15:40;;;;;;;51.03;27.10;;;;;;;-4.92;89.45;96495.44;1048219;28;20021;-88
2021/01/11 10:16:10;;;;;;;53.70;27.15;;;;;;;-4.87;89.38;96500.97;1048092;28;20459;-88
2021/01/11 10:16:42;;;;;;;52.05;27.50;;;;;;;-4.84;89.48;96498.13;1047420;28;20035;-86
2021/01/11 10:17:12;;;;;;;47.67;25.92;;;;;;;-4.79;89.84;96506.25;1043752;28;20432;-87
2021/01/11 10:17:44;;;;;;;49.67;27.00;;;;;;;-4.81;89.12;96498.63;1043203;28;20033;-88
2021/01/11 10:18:14;;;;;;;50.53;27.60;;;;;;;-4.84;88.92;96498.13;1038703;28;20471;-87
2021/01/11 10:18:46;;;;;;;49.88;28.60;;;;;;;-4.81;89.75;96490.88;1041084;28;20048;-86
2021/01/11 10:19:18;;;;;;;49.05;27.13;;;;;;;-4.85;88.54;96489.56;1041025;28;20056;-86
2021/01/11 10:19:48;;;;;;;47.60;25.83;;;;;;;-4.82;89.09;96489.25;1045035;28;20040;-86
2021/01/11 10:20:19;;;;;;;47.65;26.65;;;;;;;-4.86;88.13;96482.72;1046994;28;20450;-87
2021/01/11 10:20:49;;;;;;;50.17;27.55;;;;;;;-4.99;88.15;96487.41;1047213;28;20478;-86
2021/01/11 10:21:20;;;;;;;50.90;26.88;;;;;;;-4.98;88.07;96486.47;1047216;28;20025;-87
2021/01/11 10:21:51;;;;;;;53.08;26.45;;;;;;;-5.05;88.63;96493.19;1042544;28;20010;-87
2021/01/11 10:22:21;;;;;;;46.75;25.80;;;;;;;-5.04;88.55;96492.22;1043101;28;20463;-86
2021/01/11 10:22:53;;;;;;;44.35;25.38;;;;;;;-4.95;88.78;96490.56;1039151;28;20038;-87
2021/01/11 10:23:23;;;;;;;48.58;27.23;;;;;;;-4.89;88.46;96490.78;1039261;28;20034;-86
2021/01/11 10:23:53;;;;;;;48.55;27.17;;;;;;;-4.85;88.04;96486.97;1035040;28;20022;-86
2021/01/11 10:24:24;;;;;;;47.70;25.45;;;;;;;-4.77;88.91;96487.03;1040892;28;20033;-87
2021/01/11 10:24:54;;;;;;;53.25;28.35;;;;;;;-4.85;88.08;96497.31;1045487;28;20048;-88
2021/01/11 10:25:25;;;;;;;47.03;27.08;;;;;;;-4.77;87.56;96484.44;1045341;28;20104;-88
2021/01/11 10:25:55;;;;;;;47.90;26.38;;;;;;;-4.77;87.63;96491.41;1045389;28;20060;-88
2021/01/11 10:26:26;;;;;;;51.97;26.63;;;;;;;-4.86;87.41;96490.47;1044580;28;20037;-88
2021/01/11 10:26:56;;;;;;;43.92;25.00;;;;;;;-4.82;88.72;96485.84;1040830;28;20021;-88
2021/01/11 10:27:27;;;;;;;46.83;25.95;;;;;;;-4.78;88.43;96480.25;1044571;28;20370;-88
2021/01/11 10:27:57;;;;;;;43.10;25.45;;;;;;;-4.73;87.65;96485.00;1049169;28;20074;-89
2021/01/11 10:28:28;;;;;;;47.63;25.85;;;;;;;-4.70;87.35;96479.53;1045360;28;20474;-87
2021/01/11 10:28:58;;;;;;;47.83;26.27;;;;;;;-4.77;87.80;96479.28;1045374;28;20025;-87
2021/01/11 10:29:29;;;;;;;45.35;24.13;;;;;;;-4.74;87.56;96481.56;1040959;28;20092;-87
2021/01/11 10:29:59;;;;;;;48.03;25.55;;;;;;;-4.87;87.37;96478.50;1036423;28;20033;-87
2021/01/11 10:30:30;;;;;;;50.97;25.25;;;;;;;-4.98;87.11;96476.13;1032941;28;20022;-87
2021/01/11 10:31:00;;;;;;;45.28;25.63;;;;;;;-4.86;89.49;96480.13;1031358;28;20057;-87
2021/01/11 10:31:31;;;;;;;43.33;24.55;;;;;;;-4.89;87.88;96471.88;1036887;28;20026;-88
2021/01/11 10:32:02;;;;;;;45.85;25.45;;;;;;;-4.91;87.81;96477.19;1036919;28;20018;-87
2021/01/11 10:32:32;;;;;;;50.03;25.88;;;;;;;-4.94;87.48;96472.31;1040889;28;20029;-87
2021/01/11 10:33:02;;;;;;;49.85;26.40;;;;;;;-5.05;87.70;96478.47;1044956;28;20079;-87
2021/01/11 10:33:33;;;;;;;46.70;25.75;;;;;;;-4.99;88.39;96482.25;1045043;28;20029;-87
2021/01/11 10:34:03;;;;;;;48.88;25.98;;;;;;;-4.93;89.24;96476.53;1049026;28;20020;-88
2021/01/11 10:34:34;;;;;;;46.08;24.67;;;;;;;-4.83;89.82;96469.53;1040950;28;20104;-87
2021/01/11 10:35:04;;;;;;;45.45;23.83;;;;;;;-4.89;89.24;96472.69;1039635;28;20090;-87
2021/01/11 10:35:35;;;;;;;49.35;24.98;;;;;;;-4.93;87.57;96476.53;1044310;28;20045;-87
2021/01/11 10:36:05;;;;;;;48.10;25.52;;;;;;;-4.84;87.48;96472.25;1036826;28;20021;-86
2021/01/11 10:36:50;;;;;;;48.72;24.58;;;;;;;-4.79;88.41;96478.63;1037347;28;20018;-87
2021/01/11 10:37:20;;;;;;;40.83;23.15;;;;;;;-4.75;88.32;96477.34;1035991;28;20015;-88
2021/01/11 10:37:51;;;;;;;42.40;23.98;;;;;;;-4.74;87.56;96473.81;1044685;28;20013;-87
2021/01/11 10:38:21;;;;;;;42.10;23.38;;;;;;;-4.72;86.79;96481.44;1037922;28;20046;-88
2021/01/11 10:38:52;;;;;;;42.08;23.98;;;;;;;-4.79;88.01;96476.03;1036170;28;20030;-87
2021/01/11 10:39:23;;;;;;;45.35;24.63;;;;;;;-4.72;88.53;96477.09;1025930;28;20044;-87
2021/01/11 10:39:54;;;;;;;44.45;24.20;;;;;;;-4.71;87.19;96477.91;1025153;28;20023;-88
2021/01/11 10:40:24;;;;;;;44.00;23.98;;;;;;;-4.74;88.20;96473.81;1035248;28;20022;-86
2021/01/11 10:40:54;;;;;;;42.35;22.98;;;;;;;-4.75;87.25;96476.53;1040445;28;20025;-86
2021/01/11 10:41:25;;;;;;;42.17;24.13;;;;;;;-4.68;87.73;96474.22;1045889;28;20462;-85
2021/01/11 10:41:56;;;;;;;42.90;23.58;;;;;;;-4.84;87.12;96478.25;1042119;28;20014;-87
2021/01/11 10:42:27;;;;;;;41.42;23.33;;;;;;;-4.82;87.01;96478.09;1041594;28;20486;-86
2021/01/11 10:42:57;;;;;;;42.47;24.27;;;;;;;-4.88;86.34;96476.06;1044213;28;20017;-87
2021/01/11 10:43:30;;;;;;;41.75;22.73;;;;;;;-5.01;85.94;96481.59;1039055;28;20018;-86
2021/01/11 10:44:00;;;;;;;40.05;21.58;;;;;;;-4.99;86.44;96479.66;1034194;28;20015;-86
2021/01/11 10:44:31;;;;;;;39.55;22.55;;;;;;;-4.87;86.82;96482.88;1028682;28;20034;-86
2021/01/11 10:45:01;;;;;;;44.03;23.80;;;;;;;-4.87;87.30;96475.94;1029029;28;20143;-86
2021/01/11 10:45:31;;;;;;;40.45;22.98;;;;;;;-4.81;88.20;96477.94;1033302;28;20027;-86
2021/01/11 10:46:02;;;;;;;44.83;24.23;;;;;;;-4.78;87.18;96482.81;1040737;28;20020;-86
2021/01/11 10:46:33;;;;;;;45.28;24.83;;;;;;;-4.85;86.53;96478.41;1040663;28;20032;-86
2021/01/11 10:47:04;;;;;;;43.40;22.58;;;;;;;-4.79;85.84;96478.63;1032556;28;20026;-86
2021/01/11 10:47:34;;;;;;;42.55;23.85;;;;;;;-4.75;85.56;96482.53;1031837;28;20029;-86
2021/01/11 10:48:05;;;;;;;42.08;23.27;;;;;;;-4.91;86.11;96474.59;1032845;28;20026;-86
2021/01/11 10:48:37;;;;;;;41.50;23.00;;;;;;;-5.06;85.89;96474.28;1037021;28;20398;-86
2021/01/11 10:49:07;;;;;;;40.58;22.85;;;;;;;-4.94;87.73;96471.50;1036745;28;20022;-86
2021/01/11 10:49:38;;;;;;;43.65;22.88;;;;;;;-4.98;87.03;96476.13;1036472;28;20018;-87
2021/01/11 10:50:09;;;;;;;42.45;22.77;;;;;;;-4.98;86.43;96476.13;1037571;28;20026;-86
2021/01/11 10:50:39;;;;;;;44.25;23.23;;;;;;;-5.05;86.61;96477.66;1041367;28;20351;-86
2021/01/11 10:51:14;;;;;;;41.63;22.60;;;;;;;-5.03;87.38;96478.34;1045183;28;20347;-86
2021/01/11 10:51:46;;;;;;;42.95;23.08;;;;;;;-4.98;87.27;96480.47;1045040;28;20021;-85
2021/01/11 10:52:16;;;;;;;38.17;22.15;;;;;;;-4.98;86.78;96481.28;1045091;28;20025;-85
2021/01/11 10:52:46;;;;;;;41.85;23.25;;;;;;;-4.94;86.94;96472.31;1040712;28;20022;-86
2021/01/11 10:53:17;;;;;;;41.00;22.45;;;;;;;-5.08;86.71;96478.78;1040804;28;20375;-86
2021/01/11 10:53:47;;;;;;;44.88;24.88;;;;;;;-5.00;87.33;96475.44;1036614;28;20053;-86
2021/01/11 10:54:18;;;;;;;44.28;22.90;;;;;;;-4.91;86.48;96477.19;1036644;28;20033;-85
2021/01/11 10:54:48;;;;;;;42.10;23.17;;;;;;;-4.99;86.59;96482.25;1040775;28;20027;-85
2021/01/11 10:55:19;;;;;;;43.58;23.10;;;;;;;-4.96;86.98;96468.25;1032467;28;20030;-86
2021/01/11 10:55:50;;;;;;;42.55;25.08;;;;;;;-4.86;86.23;96477.56;1036767;28;20460;-85
2021/01/11 10:56:20;;;;;;;42.70;22.73;;;;;;;-4.86;85.67;96474.97;1033402;28;20411;-86
2021/01/11 10:56:51;;;;;;;39.40;21.05;;;;;;;-4.86;86.71;96474.97;1032235;28;20539;-89
2021/01/11 10:57:22;;;;;;;42.13;23.60;;;;;;;-4.96;86.00;96483.75;1041355;28;20314;-86
2021/01/11 10:57:52;;;;;;;42.80;23.17;;;;;;;-4.96;85.60;96484.56;1037152;28;20026;-84
2021/01/11 10:58:23;;;;;;;40.50;22.42;;;;;;;-4.95;85.39;96485.38;1036356;28;20026;-88
2021/01/11 10:58:54;;;;;;;43.05;22.42;;;;;;;-4.97;85.15;96482.09;1039837;28;20014;-81
2021/01/11 10:59:25;;;;;;;40.95;21.90;;;;;;;-4.91;87.13;96489.28;1039814;28;20042;-84
2021/01/11 10:59:55;;;;;;;37.03;21.73;;;;;;;-4.86;86.16;96474.16;1036855;28;20025;-85
2021/01/11 11:00:26;;;;;;;41.35;20.88;;;;;;;-4.79;85.46;96481.19;1040722;28;20489;-83
2021/01/11 11:00:56;;;;;;;41.55;22.23;;;;;;;-4.85;86.47;96481.78;1040774;28;20029;-83
2021/01/11 11:01:26;;;;;;;42.92;22.58;;;;;;;-5.03;86.18;96480.91;1040576;28;20025;-82
2021/01/11 11:01:57;;;;;;;37.08;20.75;;;;;;;-5.35;85.25;96476.13;1040333;28;20028;-82
2021/01/11 11:02:27;;;;;;;43.63;22.65;;;;;;;-5.59;85.75;96481.78;1040229;28;20069;-82
2021/01/11 11:02:58;;;;;;;40.90;22.60;;;;;;;-5.41;86.68;96480.09;1041353;28;20059;-83
2021/01/11 11:03:29;;;;;;;39.72;21.48;;;;;;;-5.24;87.95;96483.72;1041996;28;20059;-83
2021/01/11 11:04:00;;;;;;;42.50;22.73;;;;;;;-5.32;87.68;96481.84;1036281;28;20030;-83
2021/01/11 11:04:30;;;;;;;37.92;21.98;;;;;;;-5.12;88.14;96485.16;1032309;28;20030;-83
2021/01/11 11:05:00;;;;;;;47.10;24.33;;;;;;;-5.03;88.14;96483.50;1032585;28;20026;-82
2021/01/11 11:05:31;;;;;;;37.67;21.83;;;;;;;-5.02;87.64;96482.53;1036409;28;20017;-83
2021/01/11 11:06:02;;;;;;;39.15;21.67;;;;;;;-5.04;86.83;96471.53;1036428;28;20109;-83
2021/01/11 11:06:33;;;;;;;43.17;23.08;;;;;;;-5.22;86.55;96479.22;1040201;28;20028;-82
2021/01/11 11:07:05;;;;;;;42.22;22.92;;;;;;;-4.99;87.88;96479.66;1036265;28;20049;-83
2021/01/11 11:07:36;;;;;;;38.95;22.73;;;;;;;-4.98;87.32;96480.47;1036538;28;20022;-82
2021/01/11 11:08:07;;;;;;;36.53;21.25;;;;;;;-4.91;86.24;96479.78;1040119;28;20071;-82
2021/01/11 11:08:38;;;;;;;38.30;22.38;;;;;;;-4.89;87.90;96475.25;1036830;28;20057;-83
2021/01/11 11:09:08;;;;;;;40.10;22.02;;;;;;;-5.00;86.80;96475.44;1036406;28;20069;-83
2021/01/11 11:09:39;;;;;;;40.95;21.88;;;;;;;-4.91;86.91;96476.38;1036415;28;20391;-83
2021/01/11 11:10:10;;;;;;;38.58;21.08;;;;;;;-4.89;86.21;96475.25;1036531;28;20018;-84
2021/01/11 11:10:40;;;;;;;41.67;23.85;;;;;;;-4.91;86.88;96469.44;1040854;28;20048;-84
2021/01/11 11:11:14;;;;;;;46.03;22.17;;;;;;;-4.95;86.69;96462.94;1045048;28;20433;-84
2021/01/11 11:11:52;;;;;;;44.95;23.40;;;;;;;-4.95;86.62;96464.69;1044930;28;20067;-84
2021/01/11 11:12:23;;;;;;;42.63;22.33;;;;;;;-5.02;86.79;96467.03;1042642;28;20021;-84
2021/01/11 11:12:53;;;;;;;41.38;22.75;;;;;;;-5.06;85.75;96471.69;1040946;28;20013;-85
2021/01/11 11:13:24;;;;;;;43.55;22.08;;;;;;;-5.07;85.95;96466.66;1040648;28;20013;-85
2021/01/11 11:13:54;;;;;;;42.72;21.80;;;;;;;-5.07;86.12;96466.66;1040720;28;20025;-85
2021/01/11 11:14:25;;;;;;;38.33;21.60;;;;;;;-5.06;86.32;96458.75;1041266;28;20394;-85
2021/01/11 11:14:58;;;;;;;38.85;22.08;;;;;;;-5.06;86.79;96468.28;1045447;28;20047;-86
2021/01/11 11:15:28;;;;;;;40.35;22.13;;;;;;;-5.02;87.28;96459.28;1045606;28;20040;-86
2021/01/11 11:15:59;;;;;;;37.55;21.92;;;;;;;-5.15;86.23;96462.19;1045355;28;20013;-86
2021/01/11 11:16:30;;;;;;;41.10;22.08;;;;;;;-5.07;86.34;96466.66;1041185;28;20017;-86
2021/01/11 11:17:00;;;;;;;42.40;22.92;;;;;;;-5.01;86.72;96455.72;1040705;28;20025;-85
2021/01/11 11:17:32;;;;;;;40.42;21.27;;;;;;;-5.06;86.63;96455.38;1041081;28;20049;-83
2021/01/11 11:18:02;;;;;;;40.42;22.15;;;;;;;-5.01;86.60;96451.38;1041445;28;20010;-86
2021/01/11 11:18:35;;;;;;;38.00;21.63;;;;;;;-5.04;86.41;96458.63;1041007;28;20328;-86
2021/01/11 11:19:05;;;;;;;37.88;22.35;;;;;;;-4.99;87.08;96448.66;1040847;28;20063;-85
2021/01/11 11:19:35;;;;;;;40.03;22.95;;;;;;;-4.94;86.87;96449.03;1036860;28;20307;-87
2021/01/11 11:20:06;;;;;;;38.53;20.77;;;;;;;-4.98;86.49;96444.28;1037033;28;20021;-86
2021/01/11 11:20:38;;;;;;;40.15;23.33;;;;;;;-4.89;86.80;96449.41;1037091;28;20029;-86
2021/01/11 11:21:09;;;;;;;47.45;30.17;;;;;;;-4.87;86.38;96452.66;1041083;28;20021;-86
2021/01/11 11:21:40;;;;;;;45.22;26.08;;;;;;;-4.76;86.77;96451.66;1045275;28;20068;-85
2021/01/11 11:22:10;;;;;;;39.67;22.90;;;;;;;-4.73;85.10;96444.44;1040917;28;20090;-85
2021/01/11 11:22:41;;;;;;;43.05;24.35;;;;;;;-4.77;85.00;96448.25;1041227;28;20018;-88
2021/01/11 11:23:11;;;;;;;42.40;23.70;;;;;;;-4.77;85.91;96456.00;1037359;28;20521;-87
2021/01/11 11:23:42;;;;;;;45.00;24.02;;;;;;;-4.71;87.13;96441.69;1037718;28;20025;-85
2021/01/11 11:24:12;;;;;;;41.97;23.20;;;;;;;-4.68;86.62;96449.16;1041943;28;20450;-87
2021/01/11 11:24:43;;;;;;;42.72;22.60;;;;;;;-4.63;85.52;96453.88;1036644;28;20011;-87
2021/01/11 11:25:14;;;;;;;42.70;23.90;;;;;;;-4.75;84.91;96456.66;1040425;28;20021;-86
2021/01/11 11:25:45;;;;;;;41.83;23.17;;;;;;;-4.92;85.11;96449.72;1036322;28;20019;-88
2021/01/11 11:26:19;;;;;;;45.03;23.15;;;;;;;-4.95;85.02;96446.59;1037717;28;20017;-89
2021/01/11 11:26:50;;;;;;;41.40;23.40;;;;;;;-4.96;86.10;96445.78;1046828;28;20035;-88
2021/01/11 11:27:20;;;;;;;42.60;23.60;;;;;;;-5.01;86.05;96442.81;1047108;28;20134;-89
2021/01/11 11:27:51;;;;;;;43.30;24.17;;;;;;;-5.00;86.08;96450.41;1046981;28;20401;-88
2021/01/11 11:28:21;;;;;;;39.33;22.10;;;;;;;-4.95;86.13;96450.00;1046577;28;20009;-88
2021/01/11 11:28:52;;;;;;;42.55;22.40;;;;;;;-4.81;86.61;96452.09;1046780;28;20020;-88
2021/01/11 11:29:23;;;;;;;49.90;24.15;;;;;;;-4.87;86.32;96447.47;1046202;28;20070;-88
2021/01/11 11:29:55;;;;;;;44.97;24.52;;;;;;;-4.85;87.35;96444.78;1046119;28;20495;-88
2021/01/11 11:30:25;;;;;;;43.60;23.35;;;;;;;-4.78;86.08;96445.81;1045535;28;20032;-85
2021/01/11 11:30:56;;;;;;;42.15;23.75;;;;;;;-4.73;85.83;96443.63;1045278;28;20024;-86
2021/01/11 11:31:30;;;;;;;43.05;23.52;;;;;;;-4.75;85.97;96445.50;1040755;28;20022;-86
2021/01/11 11:32:01;;;;;;;47.45;24.90;;;;;;;-4.75;86.80;96437.75;1036800;28;20093;-85
2021/01/11 11:32:34;;;;;;;44.90;24.15;;;;;;;-4.89;86.25;96441.66;1039515;28;20041;-85
2021/01/11 11:33:04;;;;;;;44.63;24.92;;;;;;;-4.80;86.54;96440.78;1041209;28;20045;-85